»·PEaware :: TPX665 KPSP-KLAS

TPX665 :: KPSP-KLAS

FLIGHT INFORMATION

Flight Status: Arrived
Operator: ATP Experience
More flights by this operator :: More flights under this callsign
Pilot: Ben F. (2808)
Aircraft: BOEING 737-700
(B737)
More flights by this aircraft type
Origin: KPSP Palm Springs Intl
United States
Destination: KLAS McCarran Intl
United States
More flights between these airports :: More routes between these airports
Route: +CATH1 PSP TNP KEPEC6
File this flight plan on PilotEdge
Remarks:
Altitude:
(Current/Filed)
23,000ft
Speed:
(Current/Filed)
419kts
Departed: 12-May-18 09:30 AM
Arrived: 12-May-18 10:09 AM
Distance/Time
Traveled:
151nm/0:39
Distance/Time
To Go:
Arrived

Flight Plot

Page will automatically refresh every two minutes.

Flight plan parsing failed; only flown route is shown


Map Options




Map Legend


Flown Route
Filed Route
Departure Airport
Arrival Airport
Navaid (VOR, NDB)
Fix

Horizontal Profiles

Position Reports

Time Latitude Longitude Heading Altitude Ground
Speed
12-May-18 09:11 33.823122 -116.505783 285 485ft 0kts
12-May-18 09:12 33.823122 -116.505783 285 485ft 0kts
12-May-18 09:13 33.823122 -116.505783 285 485ft 0kts
12-May-18 09:14 33.823122 -116.505783 285 485ft 0kts
12-May-18 09:15 33.823122 -116.505783 285 485ft 0kts
12-May-18 09:16 33.823122 -116.505783 285 485ft 0kts
12-May-18 09:17 33.823122 -116.505783 285 485ft 0kts
12-May-18 09:18 33.823122 -116.505783 285 485ft 0kts
12-May-18 09:19 33.823122 -116.505783 285 485ft 0kts
12-May-18 09:20 33.823122 -116.505783 285 485ft 0kts
12-May-18 09:21 33.823122 -116.505783 285 485ft 0kts
12-May-18 09:22 33.823122 -116.505783 285 485ft 0kts
12-May-18 09:23 33.822970 -116.505124 279 485ft 2kts
12-May-18 09:24 33.822931 -116.504700 275 485ft 0kts
12-May-18 09:25 33.822932 -116.504702 275 485ft 0kts
12-May-18 09:26 33.822689 -116.504894 70 485ft 2kts
12-May-18 09:27 33.822133 -116.503014 145 485ft 23kts
12-May-18 09:28 33.818503 -116.499529 107 485ft 7kts
12-May-18 09:29 33.818516 -116.499076 83 485ft 0kts
12-May-18 09:30 33.828372 -116.506435 323 559ft 137kts
12-May-18 09:31 33.864426 -116.535595 322 3441ft 172kts
12-May-18 09:32 33.916496 -116.525442 63 5942ft 253kts
12-May-18 09:33 33.884670 -116.449868 132 9421ft 298kts
12-May-18 09:34 33.874865 -116.352491 62 11928ft 364kts
12-May-18 09:35 33.922896 -116.235353 63 14681ft 407kts
12-May-18 09:36 33.974991 -116.107581 63 17468ft 439kts
12-May-18 09:37 34.030433 -115.972241 63 20114ft 460kts
12-May-18 09:38 34.087816 -115.830364 63 22460ft 478kts
12-May-18 09:39 34.168823 -115.702434 38 22956ft 483kts
12-May-18 09:40 34.268987 -115.593838 40 22952ft 486kts
12-May-18 09:41 34.379156 -115.502964 16 22952ft 475kts
12-May-18 09:42 34.503850 -115.451403 13 22942ft 475kts
12-May-18 09:43 34.628537 -115.397723 14 22928ft 477kts
12-May-18 09:44 34.754233 -115.344659 6 22911ft 473kts
12-May-18 09:45 34.878037 -115.363265 333 22911ft 444kts
12-May-18 09:46 34.995200 -115.411382 333 22912ft 443kts
12-May-18 09:47 35.111327 -115.457444 333 22913ft 431kts
12-May-18 09:48 35.224024 -115.501603 333 21705ft 419kts
12-May-18 09:49 35.333522 -115.544588 333 19327ft 405kts
12-May-18 09:50 35.438253 -115.585747 334 17127ft 386kts
12-May-18 09:51 35.538096 -115.625218 336 14918ft 369kts
12-May-18 09:52 35.631970 -115.662425 337 13354ft 320kts
12-May-18 09:53 35.708967 -115.640324 42 13035ft 315kts
12-May-18 09:54 35.777293 -115.576470 5 13026ft 306kts
12-May-18 09:55 35.861650 -115.569605 357 13024ft 303kts
12-May-18 09:56 35.945883 -115.564507 4 13016ft 305kts
12-May-18 09:57 35.998723 -115.485387 77 12183ft 327kts
12-May-18 09:58 36.026869 -115.384330 75 11099ft 295kts
12-May-18 09:59 36.024871 -115.286115 94 9974ft 281kts
12-May-18 10:00 36.017838 -115.191724 93 8906ft 270kts
12-May-18 10:01 36.011720 -115.102954 94 8056ft 247kts
12-May-18 10:02 36.005334 -115.019812 94 6950ft 242kts
12-May-18 10:03 36.005154 -114.940261 52 5621ft 222kts
12-May-18 10:04 36.058125 -114.937706 344 4924ft 189kts
12-May-18 10:05 36.073949 -114.991759 270 4298ft 171kts
12-May-18 10:06 36.073737 -115.043631 271 3477ft 139kts
12-May-18 10:07 36.073687 -115.091288 271 2746ft 138kts
12-May-18 10:08 36.073642 -115.138182 270 2189ft 86kts
12-May-18 10:09 36.076010 -115.146547 359 2189ft 11kts
12-May-18 10:10 36.078375 -115.145060 95 2189ft 16kts
12-May-18 10:11 36.078266 -115.140773 89 2189ft 15kts
12-May-18 10:12 36.080463 -115.137771 15 2189ft 7kts
12-May-18 10:13 36.081111 -115.138189 312 2189ft 0kts
12-May-18 10:14 36.081111 -115.138189 312 2189ft 0kts
12-May-18 10:15 36.081111 -115.138189 312 2189ft 0kts
12-May-18 10:16 36.081111 -115.138189 312 2189ft 0kts
12-May-18 10:17 36.081111 -115.138189 312 2189ft 0kts
12-May-18 10:18 36.081111 -115.138189 312 2189ft 0kts
12-May-18 10:19 36.081111 -115.138189 312 2189ft 0kts
12-May-18 10:20 36.081111 -115.138189 312 2188ft 0kts
12-May-18 10:21 36.081111 -115.138189 312 2188ft 0kts
12-May-18 10:22 36.081111 -115.138189 312 2188ft 0kts

Navigation Log

Ident Type
Flight plan parsing failed, navigation log unavailable